METAR Data
IDs: Format: Raw Decoded Include TAF

Data at: 1223 UTC 23 Sep 2018

KFLP 231208Z AUTO 02003KT 6SM BR BKN007 OVC010 16/16 A3006 RMK AO2 CIG 004V009
KFLP 231156Z AUTO 02003KT 7SM OVC010 16/16 A3005 RMK AO2 CIG 007V011 SLP173 P0001 60002 70040 T01610156 10167 20161 53001
KFLP 231056Z AUTO 03003KT 7SM OVC010 16/16 A3005 RMK AO2 SLP172 T01610156
KFLP 230956Z AUTO 00000KT 10SM OVC010 16/16 A3004 RMK AO2 SLP170 T01610156
KFLP 230856Z AUTO 02004KT 7SM OVC010 16/16 A3005 RMK AO2 RAB08E56 SLP173 P0000 60001 T01610156 56008
KFLP 230835Z AUTO 02004KT 10SM -RA OVC010 16/16 A3005 RMK AO2 RAB08 CIG 005V012 P0000
KFLP 230815Z AUTO 02003KT 9SM -RA BKN008 OVC012 16/16 A3006 RMK AO2 RAB08 CIG 003V011 P0000
KFLP 230756Z AUTO 01003KT 10SM SCT008 OVC014 16/16 A3006 RMK AO2 RAE28 SLP175 P0000 T01610156
KFLP 230714Z AUTO 03004KT 10SM -RA SCT008 OVC014 16/16 A3006 RMK AO2 P0000
KFLP 230704Z AUTO 03005KT 10SM -RA BKN010 OVC014 16/16 A3006 RMK AO2 CIG 006V011 P0000
KFLP 230656Z AUTO 03003KT 8SM -RA OVC008 16/16 A3006 RMK AO2 CIG 007V012 SLP176 P0001 T01610156
KFLP 230556Z AUTO 04003KT 10SM -RA OVC006 17/16 A3008 RMK AO2 RAB52 SLP181 P0000 60006 T01670161 10178 20167 401780144 58007
KFLP 230509Z AUTO 00000KT 10SM BKN008 OVC020 17/16 A3008 RMK AO2 CIG 005V011
KFLP 230456Z AUTO 35004KT 10SM OVC020 17/16 A3008 RMK AO2 RAE44 SLP182 P0002 T01670161
KFLP 230436Z AUTO 04004KT 10SM -RA SCT010 OVC022 17/16 A3008 RMK AO2 P0002
KFLP 230356Z AUTO 05003KT 5SM RA BR OVC012 17/16 A3010 RMK AO2 RAE03B21 SLP190 P0004 T01670161
KFLP 230256Z AUTO VRB06KT 10SM -RA OVC012 17/16 A3010 RMK AO2 RAB0158 SLP190 P0000 60000 T01720156 50002
KFLP 230156Z AUTO 00000KT 10SM OVC014 18/16 A3010 RMK AO2 SLP191 T01780161
KFLP 230056Z AUTO 07003KT 10SM BKN014 OVC019 18/16 A3009 RMK AO2 SLP185 T01780161
KFLP 230049Z AUTO 03004KT 10SM OVC016 18/16 A3009 RMK AO2
KFLP 222356Z AUTO 05003KT 10SM OVC014 18/16 A3009 RMK AO2 SLP188 T01780161 10178 20161 56007
KFLP 222256Z AUTO 07003KT 10SM OVC014 18/16 A3010 RMK AO2 SLP189 T01780161
KFLP 222156Z AUTO 05005KT 10SM OVC012 18/16 A3010 RMK AO2 SLP191 T01780156
KFLP 222056Z AUTO 04004KT 10SM OVC014 17/16 A3012 RMK AO2 SLP195 T01720156 56020
KFLP 221956Z AUTO 07006KT 10SM OVC010 17/15 A3013 RMK AO2 SLP199 T01670150
KFLP 221914Z AUTO 06004KT 10SM OVC010 17/15 A3014 RMK AO2 CIG 008V012
KFLP 221856Z AUTO 03005KT 10SM OVC008 17/15 A3015 RMK AO2 CIG 006V010 SLP208 T01670150
KFLP 221804Z AUTO 02008KT 10SM OVC008 16/15 A3017 RMK AO2 CIG 006V011
KFLP 221756Z AUTO 02005KT 10SM OVC010 17/16 A3018 RMK AO2 RAE15 SLP215 P0000 60032 T01670156 10167 20144 56008
KFLP 221656Z AUTO 04006KT 10SM -RA BKN010 OVC015 17/16 A3019 RMK AO2 CIG 007V013 SLP218 P0001 T01670156
KFLP 221654Z AUTO 04005KT 10SM -RA OVC010 16/16 A3019 RMK AO2 P0001
KFLP 221647Z AUTO 03005KT 10SM -RA OVC008 16/16 A3019 RMK AO2 CIG 007V012 P0001
KFLP 221608Z AUTO 02004KT 10SM -RA OVC010 16/15 A3020 RMK AO2 CIG 008V014 P0000
KFLP 221556Z AUTO 36004KT 10SM -RA BKN008 OVC013 16/15 A3020 RMK AO2 CIG 006V011 SLP223 P0005 T01560150
KFLP 221521Z AUTO 04005KT 5SM RA BR OVC008 15/14 A3020 RMK AO2 CIG 005V010 P0001
KFLP 221504Z AUTO 05003KT 10SM -RA OVC010 15/14 A3020 RMK AO2 CIG 005V013 P0000
KFLP 221456Z AUTO 04005KT 10SM -RA BKN008 OVC012 15/14 A3020 RMK AO2 CIG 006V010 SLP221 P0004 60026 T01500144 51005
KFLP 221425Z AUTO 04005KT 5SM RA BR BKN006 OVC012 15/14 A3019 RMK AO2 CIG 003V009 P0003
KFLP 221356Z AUTO 03006KT 7SM RA BKN004 OVC010 15/14 A3019 RMK AO2 CIG 003V007 SLP219 P0010 T01500144
KFLP 221349Z AUTO VRB03KT 5SM RA BR SCT006 OVC010 15/14 A3019 RMK AO2 P0009
KFLP 221338Z AUTO 03004KT 3SM RA BR BKN010 OVC044 15/14 A3019 RMK AO2 P0007
KFLP 221324Z AUTO 04004KT 2 1/2SM RA BR BKN010 OVC044 15/14 A3019 RMK AO2 CIG 009V014 P0004
KFLP 221256Z AUTO 03005KT 8SM RA FEW012 OVC046 15/14 A3019 RMK AO2 SLP220 P0012 T01500144
KFLP 221236Z AUTO 03004KT 10SM RA SCT008 OVC049 14/14 A3019 RMK AO2 P0008
KFLP 221224Z AUTO 03006KT 10SM RA BKN010 BKN015 OVC055 14/14 A3018 RMK AO2 P0006
KFLP 221156Z AUTO 02005KT 10SM RA FEW008 BKN044 OVC055 14/14 A3018 RMK AO2 SLP216 P0009 60035 70041 T01440139 10178 20144 51005
KFLP 221124Z AUTO 02007KT 10SM -RA FEW006 SCT012 OVC044 15/14 A3018 RMK AO2 P0003
KFLP 221056Z AUTO 04008KT 8SM -RA SCT006 BKN010 OVC042 15/14 A3018 RMK AO2 CIG 008V014 SLP213 P0009 T01500144
KFLP 221038Z AUTO 05007KT 7SM -RA FEW004 BKN008 OVC042 15/14 A3018 RMK AO2 CIG 006V011 P0007
KFLP 221015Z AUTO 04004KT 6SM RA BR FEW008 BKN041 OVC048 16/15 A3018 RMK AO2 P0004
KFLP 220956Z AUTO 04007KT 10SM RA OVC050 16/15 A3017 RMK AO2 SLP211 P0010 T01560150
KFLP 220856Z AUTO 05006KT 10SM -RA OVC060 16/15 A3017 RMK AO2 SLP209 P0002 60007 T01610150 58004
KFLP 220756Z AUTO 05004KT 10SM -RA OVC060 16/15 A3018 RMK AO2 SLP214 P0003 T01610150
KFLP 220656Z AUTO 02008KT 10SM RA OVC075 17/16 A3017 RMK AO2 SLP212 P0002 T01720156
KFLP 220556Z AUTO 01007KT 10SM -RA OVC070 18/16 A3018 RMK AO2 SLP212 P0000 60003 T01780156 10211 20178 402940178 51009
KFLP 220456Z AUTO 02010G16KT 10SM -RA FEW018 BKN070 OVC100 19/16 A3017 RMK AO2 SLP210 P0000 T01890161
KFLP 220425Z AUTO 02006KT 10SM -RA BKN018 BKN043 OVC080 21/19 A3017 RMK AO2 P0000
KFLP 220256Z AUTO 00000KT 10SM OVC110 21/19 A3015 RMK AO2 SLP203 60002 T02060189 53011
KFLP 220156Z AUTO 00000KT 10SM BKN090 BKN110 21/19 A3013 RMK AO2 RAE36 SLP198 P0000 T02060189
KFLP 220056Z AUTO 35006KT 10SM -RA OVC095 21/19 A3013 RMK AO2 SLP195 P0002 T02110189